createdAt,value
2023-04-04T00:00:56.851Z,8.98
2023-04-04T00:01:59.099Z,8.95
2023-04-04T00:03:01.303Z,8.94
2023-04-04T00:04:05.170Z,8.93
2023-04-04T00:05:08.133Z,8.94
2023-04-04T00:06:11.220Z,8.93
2023-04-04T00:07:13.832Z,8.94
2023-04-04T00:08:16.458Z,8.96
2023-04-04T00:09:18.708Z,8.96
2023-04-04T00:10:20.969Z,8.96
2023-04-04T00:11:23.266Z,8.94
2023-04-04T00:12:28.362Z,8.91
2023-04-04T00:13:29.551Z,8.88
2023-04-04T00:14:32.326Z,8.84
2023-04-04T00:15:35.615Z,8.84
2023-04-04T00:16:38.526Z,8.81
2023-04-04T00:17:41.316Z,8.79
2023-04-04T00:18:43.498Z,8.80
2023-04-04T00:19:46.734Z,8.80
2023-04-04T00:20:48.862Z,8.80
2023-04-04T00:21:50.828Z,8.80
2023-04-04T00:24:04.174Z,8.87
2023-04-04T00:25:07.552Z,8.69
2023-04-04T00:26:10.049Z,8.69
2023-04-04T00:27:12.994Z,8.71
2023-04-04T00:28:15.662Z,8.72
2023-04-04T00:29:18.037Z,8.73
2023-04-04T00:30:20.476Z,8.75
2023-04-04T00:31:22.635Z,8.75
2023-04-04T00:32:25.127Z,8.73
2023-04-04T00:33:27.601Z,8.73
2023-04-04T00:34:29.849Z,8.71
2023-04-04T00:35:32.055Z,8.70
2023-04-04T00:36:34.926Z,8.71
2023-04-04T00:37:37.757Z,8.71
2023-04-04T00:38:39.839Z,8.71
2023-04-04T00:39:42.017Z,8.72
2023-04-04T00:40:47.709Z,8.74
2023-04-04T00:41:50.131Z,8.74
2023-04-04T00:42:53.600Z,8.75
2023-04-04T00:43:56.630Z,8.75
2023-04-04T00:44:59.560Z,8.74
2023-04-04T00:46:02.211Z,8.72
2023-04-04T00:47:04.650Z,8.71
2023-04-04T00:48:06.938Z,8.71
2023-04-04T00:49:09.446Z,8.69
2023-04-04T00:50:12.138Z,8.68
2023-04-04T00:51:14.421Z,8.69
2023-04-04T00:52:16.682Z,8.67
2023-04-04T00:53:18.936Z,8.68
2023-04-04T00:54:21.130Z,8.67
2023-04-04T00:56:37.071Z,8.76
2023-04-04T00:57:39.400Z,8.61
2023-04-04T00:59:53.840Z,8.78
2023-04-04T01:00:57.233Z,8.61
2023-04-04T01:01:59.993Z,8.63
2023-04-04T01:03:03.042Z,8.66
2023-04-04T01:04:05.756Z,8.68
2023-04-04T01:05:09.335Z,8.69
2023-04-04T01:06:11.776Z,8.70
2023-04-04T01:07:14.030Z,8.70
2023-04-04T01:08:19.383Z,8.69
2023-04-04T01:09:22.500Z,8.71
2023-04-04T01:10:24.833Z,8.70
2023-04-04T01:11:27.093Z,8.69
2023-04-04T01:12:31.030Z,8.67
2023-04-04T01:13:33.529Z,8.66
2023-04-04T01:14:36.011Z,8.66
2023-04-04T01:15:38.283Z,8.66
2023-04-04T01:16:41.074Z,8.65
2023-04-04T01:17:43.904Z,8.66
2023-04-04T01:18:47.773Z,8.67
2023-04-04T01:20:06.601Z,8.67
2023-04-04T01:21:11.621Z,8.66
2023-04-04T01:22:16.193Z,8.69
2023-04-04T01:23:21.018Z,8.69
2023-04-04T01:24:24.513Z,8.68
2023-04-04T01:25:31.927Z,8.69
2023-04-04T01:26:36.155Z,8.69
2023-04-04T01:27:39.327Z,8.67
2023-04-04T01:28:43.522Z,8.67
2023-04-04T01:29:47.630Z,8.68
2023-04-04T01:30:51.973Z,8.67
2023-04-04T01:33:28.597Z,8.81
2023-04-04T01:34:55.662Z,8.62
2023-04-04T01:36:02.188Z,8.64
2023-04-04T01:37:29.124Z,8.68
2023-04-04T01:38:45.521Z,8.67
2023-04-04T01:41:03.365Z,8.80
2023-04-04T01:42:07.774Z,8.64
2023-04-04T01:43:10.809Z,8.65
2023-04-04T01:44:17.144Z,8.67
2023-04-04T01:45:23.257Z,8.69
2023-04-04T01:46:26.189Z,8.70
2023-04-04T01:47:29.021Z,8.70
2023-04-04T01:48:31.083Z,8.70
2023-04-04T01:49:35.139Z,8.68
2023-04-04T01:50:39.001Z,8.70
2023-04-04T01:51:42.211Z,8.70
2023-04-04T01:52:45.397Z,8.70
2023-04-04T01:53:47.604Z,8.72
2023-04-04T01:54:49.943Z,8.73
2023-04-04T01:55:52.615Z,8.75
2023-04-04T01:56:55.658Z,8.76
2023-04-04T01:57:57.938Z,8.76
2023-04-04T01:59:00.559Z,8.76
2023-04-04T02:00:05.553Z,8.76
2023-04-04T02:01:09.739Z,8.74
2023-04-04T02:02:12.117Z,8.73
2023-04-04T02:03:14.840Z,8.68
2023-04-04T02:04:17.086Z,8.67
2023-04-04T02:05:20.104Z,8.66
2023-04-04T02:06:22.452Z,8.65
2023-04-04T02:07:24.627Z,8.66
2023-04-04T02:08:27.467Z,8.68
2023-04-04T02:09:30.069Z,8.68
2023-04-04T02:10:32.395Z,8.69
2023-04-04T02:11:35.003Z,8.70
2023-04-04T02:12:37.700Z,8.71
2023-04-04T02:13:39.650Z,8.72
2023-04-04T02:14:42.154Z,8.73
2023-04-04T02:15:44.992Z,8.74
2023-04-04T02:16:47.388Z,8.73
2023-04-04T02:17:49.608Z,8.72
2023-04-04T02:18:52.605Z,8.72
2023-04-04T02:19:54.679Z,8.71
2023-04-04T02:20:57.717Z,8.71
2023-04-04T02:22:00.111Z,8.69
2023-04-04T02:23:02.512Z,8.68
2023-04-04T02:24:06.309Z,8.66
2023-04-04T02:25:09.189Z,8.67
2023-04-04T02:26:12.086Z,8.66
2023-04-04T02:27:14.294Z,8.67
2023-04-04T02:28:16.954Z,8.67
2023-04-04T02:29:19.039Z,8.66
2023-04-04T02:30:21.109Z,8.64
2023-04-04T02:31:23.915Z,8.63
2023-04-04T02:32:26.617Z,8.64
2023-04-04T02:33:30.093Z,8.65
2023-04-04T02:34:34.208Z,8.65
2023-04-04T02:35:37.227Z,8.66
2023-04-04T02:36:40.050Z,8.67
2023-04-04T02:38:55.158Z,8.80
2023-04-04T02:39:59.161Z,8.65
2023-04-04T02:41:01.654Z,8.66
2023-04-04T02:42:04.265Z,8.70
2023-04-04T02:43:06.337Z,8.69
2023-04-04T02:44:09.455Z,8.69
2023-04-04T02:45:12.498Z,8.69
2023-04-04T02:46:21.660Z,8.70
2023-04-04T02:47:20.727Z,8.69
2023-04-04T02:48:22.891Z,8.69
2023-04-04T02:49:26.875Z,8.70
2023-04-04T02:50:29.131Z,8.71
2023-04-04T02:51:33.286Z,8.71
2023-04-04T02:52:35.561Z,8.70
2023-04-04T02:53:39.558Z,8.70
2023-04-04T02:54:43.739Z,8.71
2023-04-04T02:55:46.745Z,8.71
2023-04-04T02:56:49.080Z,8.71
2023-04-04T02:57:51.250Z,8.71
2023-04-04T02:58:54.150Z,8.70
2023-04-04T02:59:56.278Z,8.70
2023-04-04T03:00:58.469Z,8.70
2023-04-04T03:02:02.601Z,8.69
2023-04-04T03:03:06.686Z,8.67
2023-04-04T03:04:10.971Z,8.67
2023-04-04T03:05:13.204Z,8.66
2023-04-04T03:06:15.780Z,8.67
2023-04-04T03:07:18.584Z,8.65
2023-04-04T03:08:20.554Z,8.63
2023-04-04T03:09:23.675Z,8.61
2023-04-04T03:10:28.602Z,8.61
2023-04-04T03:11:31.585Z,8.63
2023-04-04T03:12:33.740Z,8.64
2023-04-04T03:13:36.614Z,8.64
2023-04-04T03:14:39.216Z,8.65
2023-04-04T03:15:41.686Z,8.66
2023-04-04T03:16:43.890Z,8.67
2023-04-04T03:17:48.487Z,8.67
2023-04-04T03:18:50.677Z,8.65
2023-04-04T03:19:54.401Z,8.66
2023-04-04T03:20:57.292Z,8.66
2023-04-04T03:21:59.360Z,8.65
2023-04-04T03:23:02.944Z,8.66
2023-04-04T03:24:06.417Z,8.65
2023-04-04T03:25:09.692Z,8.65
2023-04-04T03:26:12.322Z,8.65
2023-04-04T03:27:14.473Z,8.65
2023-04-04T03:28:16.540Z,8.67
2023-04-04T03:29:18.714Z,8.67
2023-04-04T03:30:21.118Z,8.68
2023-04-04T03:31:23.452Z,8.67
2023-04-04T03:32:26.209Z,8.66
2023-04-04T03:33:28.368Z,8.66
2023-04-04T03:34:30.532Z,8.67
2023-04-04T03:35:40.024Z,8.67
2023-04-04T03:36:42.601Z,8.67
2023-04-04T03:37:45.016Z,8.66
2023-04-04T03:38:47.385Z,8.65
2023-04-04T03:39:50.906Z,8.65
2023-04-04T03:41:03.834Z,8.64
2023-04-04T03:42:06.487Z,8.66
2023-04-04T03:43:09.218Z,8.68
2023-04-04T03:44:12.577Z,8.67
2023-04-04T03:45:15.172Z,8.67
2023-04-04T03:46:17.918Z,8.68
2023-04-04T03:47:22.226Z,8.66
2023-04-04T03:48:24.689Z,8.66
2023-04-04T03:49:26.992Z,8.66
2023-04-04T03:50:30.606Z,8.66
2023-04-04T03:51:33.170Z,8.66
2023-04-04T03:53:47.211Z,8.79
2023-04-04T03:54:49.355Z,8.61
2023-04-04T03:55:52.785Z,8.64
2023-04-04T03:56:57.024Z,8.65
2023-04-04T03:57:59.445Z,8.64
2023-04-04T03:59:03.528Z,8.64
2023-04-04T04:00:07.905Z,8.64
2023-04-04T04:01:15.669Z,8.66
2023-04-04T04:02:17.770Z,8.65
2023-04-04T04:03:21.629Z,8.64
2023-04-04T04:04:24.286Z,8.62
2023-04-04T04:05:26.544Z,8.61
2023-04-04T04:06:28.737Z,8.61
2023-04-04T04:07:32.127Z,8.63
2023-04-04T04:08:34.252Z,8.61
2023-04-04T04:09:36.770Z,8.62
2023-04-04T04:10:40.087Z,8.63
2023-04-04T04:11:42.276Z,8.65
2023-04-04T04:12:46.161Z,8.65
2023-04-04T04:13:49.710Z,8.64
2023-04-04T04:14:53.201Z,8.64
2023-04-04T04:15:56.185Z,8.64
2023-04-04T04:16:58.988Z,8.64
2023-04-04T04:18:03.016Z,8.64
2023-04-04T04:19:06.283Z,8.65
2023-04-04T04:20:12.135Z,8.65
2023-04-04T04:21:16.311Z,8.66
2023-04-04T04:22:18.778Z,8.65
2023-04-04T04:23:20.964Z,8.63
2023-04-04T04:24:24.842Z,8.61
2023-04-04T04:25:27.037Z,8.60
2023-04-04T04:26:40.508Z,8.58
2023-04-04T04:27:44.283Z,8.56
2023-04-04T04:28:46.667Z,8.52
2023-04-04T04:29:50.093Z,8.50
2023-04-04T04:30:53.713Z,8.49
2023-04-04T04:31:58.415Z,8.46
2023-04-04T04:33:02.929Z,8.45
2023-04-04T04:34:07.556Z,8.45
2023-04-04T04:35:10.540Z,8.44
2023-04-04T04:36:13.635Z,8.44
2023-04-04T04:37:26.727Z,8.45
2023-04-04T04:38:31.133Z,8.44
2023-04-04T04:39:33.834Z,8.46
2023-04-04T04:40:38.612Z,8.48
2023-04-04T04:41:44.110Z,8.49
2023-04-04T04:42:46.620Z,8.50
2023-04-04T04:43:50.635Z,8.48
2023-04-04T04:44:53.112Z,8.46
2023-04-04T04:45:59.047Z,8.45
2023-04-04T04:47:03.520Z,8.42
2023-04-04T04:48:07.446Z,8.42
2023-04-04T04:49:11.757Z,8.40
2023-04-04T04:50:15.336Z,8.39
2023-04-04T04:51:19.371Z,8.37
2023-04-04T04:52:23.283Z,8.39
2023-04-04T04:54:37.401Z,8.50
2023-04-04T04:55:40.267Z,8.30
2023-04-04T04:56:44.644Z,8.32
2023-04-04T04:57:49.058Z,8.33
2023-04-04T04:58:53.436Z,8.34
2023-04-04T04:59:57.457Z,8.34
2023-04-04T05:01:01.623Z,8.35
2023-04-04T05:02:07.615Z,8.36
2023-04-04T05:03:12.890Z,8.37
2023-04-04T05:04:18.282Z,8.37
2023-04-04T05:05:22.451Z,8.37
2023-04-04T05:06:28.808Z,8.37
2023-04-04T05:07:32.978Z,8.37
2023-04-04T05:08:35.436Z,8.36
2023-04-04T05:09:45.242Z,8.36
2023-04-04T05:10:49.957Z,8.35
2023-04-04T05:11:53.388Z,8.36
2023-04-04T05:12:57.680Z,8.34
2023-04-04T05:14:01.549Z,8.33
2023-04-04T05:15:06.713Z,8.34
2023-04-04T05:16:09.378Z,8.35
2023-04-04T05:17:11.823Z,8.32
2023-04-04T05:18:16.027Z,8.32
2023-04-04T05:19:19.016Z,8.33
2023-04-04T05:20:23.253Z,8.35
2023-04-04T05:21:26.048Z,8.37
2023-04-04T05:22:30.402Z,8.39
2023-04-04T05:23:33.220Z,8.39
2023-04-04T05:24:36.245Z,8.37
2023-04-04T05:25:39.768Z,8.34
2023-04-04T05:26:44.374Z,8.34
2023-04-04T05:27:47.778Z,8.33
2023-04-04T05:28:50.600Z,8.34
2023-04-04T05:29:54.312Z,8.33
2023-04-04T05:30:57.533Z,8.33
2023-04-04T05:32:02.520Z,8.31
2023-04-04T05:33:05.472Z,8.29
2023-04-04T05:34:07.772Z,8.29
2023-04-04T05:35:09.875Z,8.30
2023-04-04T05:36:13.134Z,8.30
2023-04-04T05:37:23.231Z,8.32
2023-04-04T05:38:25.492Z,8.34
2023-04-04T05:39:28.272Z,8.33
2023-04-04T05:40:35.120Z,8.36
2023-04-04T05:41:39.162Z,8.37
2023-04-04T05:42:57.405Z,8.36
2023-04-04T05:44:01.669Z,8.36
2023-04-04T05:45:05.544Z,8.36
2023-04-04T05:46:09.303Z,8.36
2023-04-04T05:47:13.910Z,8.36
2023-04-04T05:48:17.982Z,8.37
2023-04-04T05:49:24.760Z,8.38
2023-04-04T05:50:29.737Z,8.38
2023-04-04T05:51:34.231Z,8.39
2023-04-04T05:52:38.224Z,8.41
2023-04-04T05:53:41.121Z,8.43
2023-04-04T05:54:44.273Z,8.45
2023-04-04T05:55:52.536Z,8.45
2023-04-04T05:56:57.892Z,8.47
2023-04-04T05:58:17.155Z,8.49
2023-04-04T05:59:21.367Z,8.52
2023-04-04T06:00:26.532Z,8.50
2023-04-04T06:01:31.241Z,8.50
2023-04-04T06:02:35.482Z,8.51
2023-04-04T06:03:39.633Z,8.49
2023-04-04T06:04:43.965Z,8.50
2023-04-04T06:05:52.211Z,8.51
2023-04-04T06:06:55.102Z,8.51
2023-04-04T06:07:57.767Z,8.52
2023-04-04T06:09:00.080Z,8.53
2023-04-04T06:10:04.164Z,8.53
2023-04-04T06:11:08.477Z,8.53
2023-04-04T06:12:10.683Z,8.53
2023-04-04T06:13:13.361Z,8.53
2023-04-04T06:14:17.558Z,8.53
2023-04-04T06:15:21.719Z,8.55
2023-04-04T06:16:24.168Z,8.56
2023-04-04T06:17:27.380Z,8.56
2023-04-04T06:18:29.484Z,8.58
2023-04-04T06:19:31.619Z,8.55
2023-04-04T06:20:34.709Z,8.54
2023-04-04T06:21:36.808Z,8.54
2023-04-04T06:22:38.977Z,8.54
2023-04-04T06:23:42.564Z,8.54
2023-04-04T06:24:44.663Z,8.56
2023-04-04T06:25:48.912Z,8.54
2023-04-04T06:26:54.005Z,8.51
2023-04-04T06:27:58.185Z,8.50
2023-04-04T06:29:00.938Z,8.50
2023-04-04T06:30:08.188Z,8.50
2023-04-04T06:31:12.813Z,8.51
2023-04-04T06:32:15.041Z,8.53
2023-04-04T06:33:18.818Z,8.52
2023-04-04T06:34:22.937Z,8.52
2023-04-04T06:35:32.757Z,8.52
2023-04-04T06:36:36.985Z,8.52
2023-04-04T06:37:40.469Z,8.51
2023-04-04T06:38:44.919Z,8.51
2023-04-04T06:39:48.998Z,8.52
2023-04-04T06:40:53.628Z,8.53
2023-04-04T06:41:56.241Z,8.54
2023-04-04T06:43:00.773Z,8.53
2023-04-04T06:44:05.834Z,8.55
2023-04-04T06:45:09.658Z,8.53
2023-04-04T06:46:12.299Z,8.54
2023-04-04T06:47:14.348Z,8.53
2023-04-04T06:48:16.422Z,8.52
2023-04-04T06:49:18.586Z,8.50
2023-04-04T06:50:21.654Z,8.48
2023-04-04T06:51:24.393Z,8.47
2023-04-04T06:52:27.077Z,8.48
2023-04-04T06:53:29.525Z,8.50
2023-04-04T06:54:31.596Z,8.52
2023-04-04T06:55:34.666Z,8.52
2023-04-04T06:56:37.195Z,8.53
2023-04-04T06:57:40.087Z,8.54
2023-04-04T06:58:44.773Z,8.55
2023-04-04T06:59:47.187Z,8.57
2023-04-04T07:00:49.489Z,8.58
2023-04-04T07:01:51.597Z,8.57
2023-04-04T07:03:00.910Z,8.57
2023-04-04T07:04:04.570Z,8.56
2023-04-04T07:05:08.709Z,8.58
2023-04-04T07:06:11.745Z,8.59
2023-04-04T07:07:14.384Z,8.58
2023-04-04T07:08:16.438Z,8.59
2023-04-04T07:09:28.715Z,8.56
2023-04-04T07:10:25.194Z,8.57
2023-04-04T07:11:27.346Z,8.57
2023-04-04T07:12:30.344Z,8.57
2023-04-04T07:13:32.485Z,8.56
2023-04-04T07:14:34.531Z,8.55
2023-04-04T07:15:37.030Z,8.55
2023-04-04T07:16:39.252Z,8.56
2023-04-04T07:17:41.706Z,8.54
2023-04-04T07:18:44.617Z,8.54
2023-04-04T07:19:46.704Z,8.54
2023-04-04T07:20:49.077Z,8.55
2023-04-04T07:21:51.165Z,8.54
2023-04-04T07:22:53.293Z,8.55
2023-04-04T07:23:55.256Z,8.53
2023-04-04T07:24:57.699Z,8.52
2023-04-04T07:25:59.818Z,8.49
2023-04-04T07:27:02.511Z,8.50
2023-04-04T07:28:12.471Z,8.49
2023-04-04T07:29:09.240Z,8.47
2023-04-04T07:30:13.188Z,8.47
2023-04-04T07:31:15.309Z,8.49
2023-04-04T07:32:17.829Z,8.50
2023-04-04T07:33:19.882Z,8.52
2023-04-04T07:34:22.078Z,8.55
2023-04-04T07:35:25.478Z,8.57
2023-04-04T07:36:27.953Z,8.60
2023-04-04T07:37:30.233Z,8.61
2023-04-04T07:38:32.786Z,8.62
2023-04-04T07:39:34.877Z,8.63
2023-04-04T07:40:38.159Z,8.62
2023-04-04T07:41:40.638Z,8.61
2023-04-04T07:42:46.192Z,8.62
2023-04-04T07:43:49.236Z,8.63
2023-04-04T07:44:51.906Z,8.61
2023-04-04T07:45:54.418Z,8.64
2023-04-04T07:47:08.556Z,8.62
2023-04-04T07:48:01.201Z,8.63
2023-04-04T07:49:03.497Z,8.65
2023-04-04T07:50:08.184Z,8.65
2023-04-04T07:51:11.503Z,8.65
2023-04-04T07:53:26.044Z,8.74
2023-04-04T07:54:29.023Z,8.55
2023-04-04T07:55:32.417Z,8.58
2023-04-04T07:56:34.993Z,8.58
2023-04-04T07:57:39.970Z,8.57
2023-04-04T07:58:42.638Z,8.57
2023-04-04T07:59:44.834Z,8.56
2023-04-04T08:00:47.447Z,8.56
2023-04-04T08:01:50.031Z,8.56
2023-04-04T08:02:53.715Z,8.55
2023-04-04T08:03:57.500Z,8.55
2023-04-04T08:05:00.835Z,8.53
2023-04-04T08:06:03.508Z,8.54
2023-04-04T08:07:06.804Z,8.55
2023-04-04T08:08:09.014Z,8.55
2023-04-04T08:09:11.249Z,8.54
2023-04-04T08:10:13.951Z,8.56
2023-04-04T08:11:15.911Z,8.56
2023-04-04T08:12:17.967Z,8.57
2023-04-04T08:13:20.141Z,8.58
2023-04-04T08:14:22.774Z,8.58
2023-04-04T08:15:24.984Z,8.60
2023-04-04T08:16:27.496Z,8.61
2023-04-04T08:17:30.147Z,8.63
2023-04-04T08:18:32.235Z,8.64
2023-04-04T08:19:35.332Z,8.65
2023-04-04T08:20:38.209Z,8.66
2023-04-04T08:21:41.893Z,8.68
2023-04-04T08:22:44.034Z,8.69
2023-04-04T08:23:46.192Z,8.69
2023-04-04T08:24:48.292Z,8.70
2023-04-04T08:25:50.809Z,8.70
2023-04-04T08:27:04.598Z,8.70
2023-04-04T08:27:57.853Z,8.70
2023-04-04T08:29:00.367Z,8.70
2023-04-04T08:30:04.382Z,8.70
2023-04-04T08:31:06.976Z,8.68
2023-04-04T08:32:09.542Z,8.68
2023-04-04T08:33:11.827Z,8.70
2023-04-04T08:34:14.359Z,8.71
2023-04-04T08:35:16.583Z,8.73
2023-04-04T08:36:19.609Z,8.74
2023-04-04T08:37:22.098Z,8.75
2023-04-04T08:38:24.182Z,8.76
2023-04-04T08:39:26.377Z,8.79
2023-04-04T08:40:28.853Z,8.81
2023-04-04T08:41:31.216Z,8.83
2023-04-04T08:42:33.584Z,8.82
2023-04-04T08:43:37.930Z,8.84
2023-04-04T08:44:41.828Z,8.85
2023-04-04T08:45:44.990Z,8.86
2023-04-04T08:46:49.007Z,8.86
2023-04-04T08:47:52.030Z,8.87
2023-04-04T08:48:56.146Z,8.90
2023-04-04T08:49:59.966Z,8.90
2023-04-04T08:51:04.030Z,8.92
2023-04-04T08:52:07.015Z,8.92
2023-04-04T08:53:11.581Z,8.93
2023-04-04T08:54:14.959Z,8.94
2023-04-04T08:55:17.778Z,8.96
2023-04-04T08:56:20.455Z,8.97
2023-04-04T08:57:22.682Z,8.98
2023-04-04T08:58:25.890Z,9.00
2023-04-04T08:59:28.226Z,9.00
2023-04-04T09:00:32.650Z,9.01
2023-04-04T09:01:35.279Z,9.01
2023-04-04T09:02:48.173Z,9.02
2023-04-04T09:03:51.551Z,9.04
2023-04-04T09:05:05.403Z,9.05
2023-04-04T09:05:59.167Z,9.07
2023-04-04T09:07:04.234Z,9.09
2023-04-04T09:08:07.625Z,9.09
2023-04-04T09:09:10.146Z,9.11
2023-04-04T09:10:12.431Z,9.14
2023-04-04T09:11:17.048Z,9.15
2023-04-04T09:12:20.734Z,9.16
2023-04-04T09:13:25.128Z,9.17
2023-04-04T09:14:29.451Z,9.17
2023-04-04T09:15:32.689Z,9.17
2023-04-04T09:16:35.327Z,9.17
2023-04-04T09:17:37.421Z,9.18
2023-04-04T09:18:40.977Z,9.19
2023-04-04T09:19:43.089Z,9.20
2023-04-04T09:21:57.807Z,9.32
2023-04-04T09:22:59.979Z,9.16
2023-04-04T09:24:02.656Z,9.18
2023-04-04T09:25:07.860Z,9.19
2023-04-04T09:26:10.280Z,9.18
2023-04-04T09:27:14.469Z,9.16
2023-04-04T09:28:17.393Z,9.16
2023-04-04T09:30:33.391Z,9.29
2023-04-04T09:31:35.995Z,9.14
2023-04-04T09:32:38.390Z,9.18
2023-04-04T09:33:40.554Z,9.19
2023-04-04T09:34:43.828Z,9.21
2023-04-04T09:37:15.198Z,9.33
2023-04-04T09:38:17.702Z,9.20
2023-04-04T09:39:21.659Z,9.23
2023-04-04T09:40:24.090Z,9.26
2023-04-04T09:41:26.346Z,9.28
2023-04-04T09:42:29.920Z,9.28
2023-04-04T09:43:33.166Z,9.28
2023-04-04T09:44:36.700Z,9.28
2023-04-04T09:45:41.424Z,9.26
2023-04-04T09:46:44.792Z,9.25
2023-04-04T09:47:47.931Z,9.24
2023-04-04T09:48:50.147Z,9.23
2023-04-04T09:49:52.879Z,9.22
2023-04-04T09:50:57.996Z,9.22
2023-04-04T09:52:00.763Z,9.21
2023-04-04T09:53:05.736Z,9.21
2023-04-04T09:54:18.718Z,9.20
2023-04-04T09:55:14.451Z,9.20
2023-04-04T09:56:17.771Z,9.19
2023-04-04T09:57:22.766Z,9.18
2023-04-04T09:58:26.765Z,9.16
2023-04-04T09:59:31.233Z,9.16
2023-04-04T10:01:45.825Z,9.25
2023-04-04T10:02:49.169Z,9.10
2023-04-04T10:03:52.769Z,9.11
2023-04-04T10:05:05.225Z,9.14
2023-04-04T10:06:05.508Z,9.11
2023-04-04T10:07:10.950Z,9.12
2023-04-04T10:08:21.715Z,9.11
2023-04-04T10:09:24.576Z,9.12
2023-04-04T10:10:27.912Z,9.11
2023-04-04T10:11:32.090Z,9.11
2023-04-04T10:12:36.474Z,9.12
2023-04-04T10:13:42.384Z,9.11
2023-04-04T10:14:47.288Z,9.14
2023-04-04T10:15:50.162Z,9.14
2023-04-04T10:18:10.936Z,9.29
2023-04-04T10:19:14.924Z,9.17
2023-04-04T10:20:18.355Z,9.20
2023-04-04T10:21:22.198Z,9.23
2023-04-04T10:22:24.810Z,9.27
2023-04-04T10:23:26.974Z,9.28
2023-04-04T10:24:29.209Z,9.31
2023-04-04T10:25:31.589Z,9.31
2023-04-04T10:26:33.768Z,9.34
2023-04-04T10:27:36.437Z,9.36
2023-04-04T10:28:38.647Z,9.37
2023-04-04T10:29:41.313Z,9.43
2023-04-04T10:32:03.700Z,9.59
2023-04-04T10:33:10.813Z,9.45
2023-04-04T10:35:40.744Z,9.66
2023-04-04T10:36:51.092Z,9.55
2023-04-04T10:38:01.744Z,9.56
2023-04-04T10:39:15.769Z,9.58
2023-04-04T10:40:21.258Z,9.60
2023-04-04T10:41:26.813Z,9.61
2023-04-04T10:42:32.407Z,9.62
2023-04-04T10:43:35.013Z,9.63
2023-04-04T10:44:39.274Z,9.64
2023-04-04T10:45:42.310Z,9.66
2023-04-04T10:46:46.734Z,9.67
2023-04-04T10:47:50.389Z,9.69
2023-04-04T10:48:53.973Z,9.70
2023-04-04T10:49:57.706Z,9.71
2023-04-04T10:51:00.691Z,9.72
2023-04-04T10:52:03.420Z,9.73
2023-04-04T10:53:07.029Z,9.75
2023-04-04T10:54:10.725Z,9.79
2023-04-04T10:55:15.886Z,9.80
2023-04-04T10:56:18.749Z,9.81
2023-04-04T10:57:21.570Z,9.83
2023-04-04T10:58:23.808Z,9.85
2023-04-04T10:59:27.287Z,9.88
2023-04-04T11:00:29.659Z,9.87
2023-04-04T11:03:11.572Z,10.04
2023-04-04T11:04:20.689Z,9.92
2023-04-04T11:05:26.229Z,9.95
2023-04-04T11:07:07.218Z,9.94
2023-04-04T11:08:10.579Z,9.93
2023-04-04T11:09:12.679Z,9.96
2023-04-04T11:10:19.307Z,9.97
2023-04-04T11:11:23.123Z,9.97
2023-04-04T11:12:31.427Z,9.99
2023-04-04T11:13:34.314Z,10.00
2023-04-04T11:14:36.485Z,10.03
2023-04-04T11:16:03.973Z,10.03
2023-04-04T11:17:08.325Z,10.04
2023-04-04T11:18:28.943Z,10.03
2023-04-04T11:19:17.315Z,10.04
2023-04-04T11:20:22.320Z,10.04
2023-04-04T11:21:26.204Z,10.03
2023-04-04T11:22:28.324Z,10.03
2023-04-04T11:24:48.043Z,10.16
2023-04-04T11:25:56.788Z,10.01
2023-04-04T11:26:59.377Z,10.05
2023-04-04T11:29:24.636Z,10.22
2023-04-04T11:30:27.933Z,10.08
2023-04-04T11:31:34.803Z,10.10
2023-04-04T11:34:09.999Z,10.24
2023-04-04T11:35:12.138Z,10.08
2023-04-04T11:36:37.171Z,10.11
2023-04-04T11:37:54.932Z,10.10
2023-04-04T11:38:57.946Z,10.13
2023-04-04T11:40:03.712Z,10.14
2023-04-04T11:41:05.839Z,10.14
2023-04-04T11:42:14.563Z,10.13
2023-04-04T11:43:17.629Z,10.15
2023-04-04T11:44:24.535Z,10.17
2023-04-04T11:45:26.895Z,10.16
2023-04-04T11:46:29.226Z,10.16
2023-04-04T11:47:34.774Z,10.14
2023-04-04T11:48:38.996Z,10.15
2023-04-04T11:49:43.865Z,10.13
2023-04-04T11:50:47.673Z,10.14
2023-04-04T11:51:49.847Z,10.14
2023-04-04T11:52:54.523Z,10.14
2023-04-04T11:53:56.728Z,10.15
2023-04-04T11:54:58.808Z,10.14
2023-04-04T11:56:01.453Z,10.16
2023-04-04T11:57:06.915Z,10.16
2023-04-04T11:58:13.012Z,10.16
2023-04-04T11:59:21.456Z,10.18
2023-04-04T12:00:33.417Z,10.18
2023-04-04T12:01:35.532Z,10.20
2023-04-04T12:02:38.894Z,10.20
2023-04-04T12:03:41.224Z,10.22
2023-04-04T12:04:47.173Z,10.21
2023-04-04T12:05:49.997Z,10.22
2023-04-04T12:06:54.267Z,10.20
2023-04-04T12:07:58.042Z,10.19
2023-04-04T12:09:03.272Z,10.19
2023-04-04T12:10:06.946Z,10.18
2023-04-04T12:11:09.086Z,10.18
2023-04-04T12:12:15.482Z,10.19
2023-04-04T12:13:18.307Z,10.19
2023-04-04T12:14:24.004Z,10.21
2023-04-04T12:15:30.101Z,10.23
2023-04-04T12:16:32.988Z,10.22
2023-04-04T12:17:40.234Z,10.25
2023-04-04T12:18:45.010Z,10.23
2023-04-04T12:19:48.349Z,10.23
2023-04-04T12:20:52.251Z,10.20
2023-04-04T12:21:56.060Z,10.18
2023-04-04T12:22:58.593Z,10.16
2023-04-04T12:24:00.890Z,10.15
2023-04-04T12:25:04.331Z,10.14
2023-04-04T12:26:07.949Z,10.12
2023-04-04T12:27:11.367Z,10.11
2023-04-04T12:28:14.151Z,10.11
2023-04-04T12:29:17.528Z,10.11
2023-04-04T12:30:20.684Z,10.11
2023-04-04T12:32:35.522Z,10.26
2023-04-04T12:33:39.770Z,10.12
2023-04-04T12:34:45.553Z,10.15
2023-04-04T12:37:03.293Z,10.26
2023-04-04T12:38:06.551Z,10.09
2023-04-04T12:39:09.885Z,10.10
2023-04-04T12:40:12.837Z,10.11
2023-04-04T12:41:17.853Z,10.14
2023-04-04T12:42:24.500Z,10.14
2023-04-04T12:43:28.779Z,10.15
2023-04-04T12:44:36.765Z,10.16
2023-04-04T12:45:39.912Z,10.16
2023-04-04T12:46:44.486Z,10.16
2023-04-04T12:47:53.324Z,10.15
2023-04-04T12:48:57.086Z,10.16
2023-04-04T12:49:59.878Z,10.13
2023-04-04T12:51:04.141Z,10.12
2023-04-04T12:52:07.485Z,10.10
2023-04-04T12:55:46.944Z,10.21
2023-04-04T12:56:55.850Z,10.04
2023-04-04T12:58:11.014Z,10.04
2023-04-04T12:59:13.306Z,10.05
2023-04-04T13:00:19.983Z,10.06
2023-04-04T13:01:24.022Z,10.07
2023-04-04T13:02:26.279Z,10.06
2023-04-04T13:03:28.689Z,10.07
2023-04-04T13:04:32.457Z,10.07
2023-04-04T13:05:35.688Z,10.08
2023-04-04T13:06:38.624Z,10.06
2023-04-04T13:07:40.907Z,10.08
2023-04-04T13:08:51.395Z,10.08
2023-04-04T13:09:59.170Z,10.08
2023-04-04T13:11:03.725Z,10.08
2023-04-04T13:12:07.232Z,10.08
2023-04-04T13:13:09.545Z,10.08
2023-04-04T13:14:13.208Z,10.09
2023-04-04T13:15:16.873Z,10.09
2023-04-04T13:16:33.684Z,10.09
2023-04-04T13:17:48.522Z,10.09
2023-04-04T13:18:50.665Z,10.08
2023-04-04T13:19:52.817Z,10.07
2023-04-04T13:20:55.585Z,10.07
2023-04-04T13:21:58.594Z,10.05
2023-04-04T13:23:05.268Z,10.07
2023-04-04T13:24:07.660Z,10.08
2023-04-04T13:25:11.904Z,10.08
2023-04-04T13:26:18.348Z,10.07
2023-04-04T13:27:21.882Z,10.08
2023-04-04T13:28:25.561Z,10.08
2023-04-04T13:29:28.342Z,10.10
2023-04-04T13:30:31.043Z,10.11
2023-04-04T13:31:33.191Z,10.11
2023-04-04T13:32:35.307Z,10.13
2023-04-04T13:33:38.657Z,10.15
2023-04-04T13:34:41.344Z,10.15
2023-04-04T13:37:02.402Z,10.27
2023-04-04T13:38:05.066Z,10.10
2023-04-04T13:39:08.350Z,10.10
2023-04-04T13:40:13.064Z,10.11
2023-04-04T13:41:16.227Z,10.11
2023-04-04T13:42:19.407Z,10.09
2023-04-04T13:43:21.981Z,10.10
2023-04-04T13:44:27.138Z,10.10
2023-04-04T13:45:32.196Z,10.11
2023-04-04T13:46:36.143Z,10.10
2023-04-04T13:47:38.616Z,10.09
2023-04-04T13:48:43.647Z,10.09
2023-04-04T13:49:46.911Z,10.09
2023-04-04T13:50:49.883Z,10.10
2023-04-04T13:51:53.223Z,10.11
2023-04-04T13:52:55.566Z,10.11
2023-04-04T13:53:58.122Z,10.10
2023-04-04T13:55:02.453Z,10.09
2023-04-04T13:57:14.179Z,10.08
2023-04-04T13:58:16.363Z,10.09
2023-04-04T13:59:19.690Z,10.09
2023-04-04T14:00:23.292Z,10.09
2023-04-04T14:01:26.652Z,10.08
2023-04-04T14:02:29.212Z,10.09
2023-04-04T14:03:31.489Z,10.09
2023-04-04T14:04:33.928Z,10.08
2023-04-04T14:05:36.115Z,10.08
2023-04-04T14:06:38.300Z,10.09
2023-04-04T14:07:41.188Z,10.09
2023-04-04T14:08:51.132Z,10.09
2023-04-04T14:09:57.386Z,10.09
2023-04-04T14:11:00.556Z,10.09
2023-04-04T14:12:02.784Z,10.08
2023-04-04T14:13:04.879Z,10.07
2023-04-04T14:14:08.265Z,10.09
2023-04-04T14:15:12.630Z,10.08
2023-04-04T14:16:17.729Z,10.09
2023-04-04T14:17:19.905Z,10.08
2023-04-04T14:18:26.738Z,10.09
2023-04-04T14:19:28.958Z,10.10
2023-04-04T14:20:33.330Z,10.11
2023-04-04T14:21:38.937Z,10.10
2023-04-04T14:22:41.133Z,10.09
2023-04-04T14:23:43.233Z,10.09
2023-04-04T14:24:45.318Z,10.10
2023-04-04T14:25:47.549Z,10.09
2023-04-04T14:26:51.031Z,10.11
2023-04-04T14:27:59.504Z,10.10
2023-04-04T14:29:02.181Z,10.11
2023-04-04T14:30:08.050Z,10.09
2023-04-04T14:31:10.890Z,10.09
2023-04-04T14:32:14.163Z,10.08
2023-04-04T14:33:17.082Z,10.07
2023-04-04T14:34:20.613Z,10.07
2023-04-04T14:35:23.564Z,10.07
2023-04-04T14:36:26.458Z,10.07
2023-04-04T14:37:28.687Z,10.07